createdAt,value
2023-05-10T00:00:50.369Z,12.71
2023-05-10T00:03:51.919Z,12.62
2023-05-10T00:06:53.445Z,12.60
2023-05-10T00:09:57.228Z,12.59
2023-05-10T00:12:58.704Z,12.60
2023-05-10T00:16:00.261Z,12.52
2023-05-10T00:19:01.729Z,12.49
2023-05-10T00:22:03.185Z,12.50
2023-05-10T00:25:04.862Z,12.47
2023-05-10T00:28:06.276Z,12.45
2023-05-10T00:31:07.696Z,12.43
2023-05-10T00:34:09.158Z,12.42
2023-05-10T00:37:10.610Z,12.41
2023-05-10T00:40:12.353Z,12.42
2023-05-10T00:43:15.814Z,12.40
2023-05-10T00:46:17.355Z,12.37
2023-05-10T00:49:18.810Z,12.31
2023-05-10T00:52:20.520Z,12.30
2023-05-10T00:55:22.389Z,12.19
2023-05-10T00:58:23.857Z,12.15
2023-05-10T01:01:25.541Z,12.12
2023-05-10T01:04:27.055Z,12.11
2023-05-10T01:07:28.538Z,12.00
2023-05-10T01:10:30.192Z,11.94
2023-05-10T01:13:31.697Z,11.94
2023-05-10T01:16:33.487Z,11.87
2023-05-10T01:19:35.131Z,11.86
2023-05-10T01:22:36.528Z,11.84
2023-05-10T01:25:58.224Z,11.76
2023-05-10T01:29:12.599Z,11.71
2023-05-10T01:32:20.885Z,11.69
2023-05-10T01:35:31.590Z,11.64
2023-05-10T01:38:53.263Z,11.60
2023-05-10T01:41:54.671Z,11.54
2023-05-10T01:45:14.816Z,11.50
2023-05-10T01:48:16.281Z,11.50
2023-05-10T01:51:17.959Z,11.44
2023-05-10T01:54:20.485Z,11.34
2023-05-10T01:57:21.946Z,11.25
2023-05-10T02:00:23.415Z,11.23
2023-05-10T02:03:26.929Z,11.14
2023-05-10T02:06:28.428Z,11.06
2023-05-10T02:09:29.869Z,11.02
2023-05-10T02:12:31.903Z,10.96
2023-05-10T02:15:33.434Z,10.89
2023-05-10T02:18:35.062Z,10.84
2023-05-10T02:21:36.856Z,10.86
2023-05-10T02:24:38.349Z,10.80
2023-05-10T02:27:39.825Z,10.79
2023-05-10T02:30:43.279Z,10.80
2023-05-10T02:33:45.871Z,10.80
2023-05-10T02:36:47.345Z,10.78
2023-05-10T02:39:48.990Z,10.74
2023-05-10T02:42:51.351Z,10.70
2023-05-10T02:45:52.926Z,10.68
2023-05-10T02:48:54.381Z,10.71
2023-05-10T02:51:57.471Z,10.65
2023-05-10T02:55:01.934Z,10.64
2023-05-10T02:58:03.538Z,10.61
2023-05-10T03:01:05.026Z,10.62
2023-05-10T03:04:06.488Z,10.55
2023-05-10T03:07:08.348Z,10.48
2023-05-10T03:10:10.275Z,10.45
2023-05-10T03:13:16.745Z,10.42
2023-05-10T03:16:21.798Z,10.34
2023-05-10T03:19:26.385Z,10.41
2023-05-10T03:22:38.274Z,10.38
2023-05-10T03:25:40.248Z,10.40
2023-05-10T03:28:42.264Z,10.39
2023-05-10T03:31:43.877Z,10.38
2023-05-10T03:34:45.445Z,10.38
2023-05-10T03:37:47.051Z,10.36
2023-05-10T03:40:48.591Z,10.34
2023-05-10T03:43:50.063Z,10.27
2023-05-10T03:46:51.585Z,10.30
2023-05-10T03:49:53.257Z,10.36
2023-05-10T03:52:55.013Z,10.36
2023-05-10T03:55:56.684Z,10.40
2023-05-10T03:58:58.856Z,10.40
2023-05-10T04:02:00.412Z,10.46
2023-05-10T04:05:01.985Z,10.60
2023-05-10T04:08:03.652Z,10.64
2023-05-10T04:11:06.272Z,10.78
2023-05-10T04:14:07.682Z,10.79
2023-05-10T04:17:09.200Z,10.88
2023-05-10T04:20:11.010Z,10.86
2023-05-10T04:23:12.465Z,10.94
2023-05-10T04:26:14.111Z,11.03
2023-05-10T04:29:15.546Z,11.04
2023-05-10T04:32:16.983Z,10.99
2023-05-10T04:35:18.498Z,10.99
2023-05-10T04:38:19.970Z,10.99
2023-05-10T04:41:21.405Z,10.97
2023-05-10T04:44:22.829Z,11.02
2023-05-10T04:47:24.343Z,11.10
2023-05-10T04:50:25.812Z,11.14
2023-05-10T04:53:27.263Z,11.21
2023-05-10T04:56:28.740Z,11.25
2023-05-10T04:59:30.198Z,11.30
2023-05-10T05:02:31.700Z,11.33
2023-05-10T05:05:33.170Z,11.44
2023-05-10T05:08:34.604Z,11.47
2023-05-10T05:12:49.494Z,11.58
2023-05-10T05:15:51.002Z,11.65
2023-05-10T05:18:52.527Z,11.65
2023-05-10T05:21:54.025Z,12.93
2023-05-10T05:25:04.681Z,12.48
2023-05-10T05:26:06.160Z,12.43
2023-05-10T05:27:07.568Z,12.41
2023-05-10T05:28:08.972Z,12.39
2023-05-10T05:29:10.397Z,12.37
2023-05-10T05:30:11.974Z,12.36
2023-05-10T05:31:13.426Z,12.36
2023-05-10T05:32:14.972Z,12.37
2023-05-10T05:33:16.445Z,12.40
2023-05-10T05:34:17.885Z,12.41
2023-05-10T05:35:19.532Z,12.41
2023-05-10T05:36:21.081Z,12.45
2023-05-10T05:37:22.542Z,12.49
2023-05-10T05:38:23.975Z,12.52
2023-05-10T05:39:25.372Z,12.55
2023-05-10T05:40:26.827Z,12.57
2023-05-10T05:41:28.241Z,12.59
2023-05-10T05:42:29.662Z,12.60
2023-05-10T05:43:31.114Z,12.66
2023-05-10T05:44:32.570Z,12.70
2023-05-10T05:45:34.011Z,12.76
2023-05-10T05:46:35.431Z,12.78
2023-05-10T05:47:36.847Z,12.81
2023-05-10T05:48:38.295Z,12.82
2023-05-10T05:49:39.699Z,12.87
2023-05-10T05:50:41.170Z,12.94
2023-05-10T05:51:42.630Z,12.98
2023-05-10T05:52:44.068Z,13.03
2023-05-10T05:53:45.478Z,13.05
2023-05-10T05:54:46.924Z,13.09
2023-05-10T05:55:53.929Z,13.12
2023-05-10T05:56:55.972Z,13.16
2023-05-10T05:57:57.390Z,13.19
2023-05-10T05:58:58.822Z,13.23
2023-05-10T06:00:00.287Z,13.30
2023-05-10T06:01:01.710Z,13.34
2023-05-10T06:02:03.205Z,13.40
2023-05-10T06:03:04.725Z,13.43
2023-05-10T06:04:06.274Z,13.44
2023-05-10T06:05:07.945Z,13.50
2023-05-10T06:06:09.385Z,13.52
2023-05-10T06:07:10.847Z,13.56
2023-05-10T06:08:12.267Z,13.59
2023-05-10T06:09:13.677Z,13.61
2023-05-10T06:10:15.181Z,13.65
2023-05-10T06:11:16.610Z,13.66
2023-05-10T06:12:18.018Z,13.64
2023-05-10T06:13:19.507Z,13.69
2023-05-10T06:14:21.291Z,13.72
2023-05-10T06:15:22.758Z,13.75
2023-05-10T06:16:24.261Z,13.81
2023-05-10T06:17:25.675Z,13.84
2023-05-10T06:18:27.095Z,13.86
2023-05-10T06:19:28.508Z,13.89
2023-05-10T06:20:30.047Z,13.91
2023-05-10T06:21:31.500Z,13.95
2023-05-10T06:22:32.918Z,13.98
2023-05-10T06:23:34.364Z,14.01
2023-05-10T06:24:35.777Z,13.87
2023-05-10T06:25:37.212Z,14.05
2023-05-10T06:26:38.681Z,14.04
2023-05-10T06:27:40.086Z,14.07
2023-05-10T06:28:41.488Z,14.09
2023-05-10T06:29:42.902Z,14.13
2023-05-10T06:30:44.295Z,14.11
2023-05-10T06:31:45.830Z,14.09
2023-05-10T06:32:47.378Z,14.11
2023-05-10T06:33:48.791Z,14.13
2023-05-10T06:34:50.201Z,14.16
2023-05-10T06:35:51.583Z,14.14
2023-05-10T06:37:39.652Z,14.62
2023-05-10T06:38:41.094Z,14.73
2023-05-10T06:39:42.498Z,14.84
2023-05-10T06:40:44.050Z,14.93
2023-05-10T06:41:45.483Z,15.00
2023-05-10T06:42:47.264Z,15.07
2023-05-10T06:43:48.664Z,15.13
2023-05-10T06:44:50.113Z,15.19
2023-05-10T06:45:51.540Z,15.27
2023-05-10T06:46:53.010Z,15.40
2023-05-10T06:47:54.526Z,15.46
2023-05-10T06:48:55.962Z,15.48
2023-05-10T06:49:57.402Z,15.51
2023-05-10T06:50:59.230Z,15.60
2023-05-10T06:52:00.655Z,15.62
2023-05-10T06:53:02.094Z,15.68
2023-05-10T06:54:03.524Z,15.71
2023-05-10T06:55:05.248Z,15.76
2023-05-10T06:56:06.640Z,15.77
2023-05-10T06:57:23.277Z,15.79
2023-05-10T06:58:31.634Z,15.86
2023-05-10T06:59:33.101Z,15.91
2023-05-10T07:00:34.745Z,15.90
2023-05-10T07:01:36.256Z,15.85
2023-05-10T07:02:37.737Z,15.82
2023-05-10T07:03:39.248Z,15.85
2023-05-10T07:04:40.727Z,15.91
2023-05-10T07:05:42.213Z,15.92
2023-05-10T07:06:43.685Z,15.97
2023-05-10T07:07:45.107Z,16.00
2023-05-10T07:08:46.510Z,16.00
2023-05-10T07:09:47.936Z,16.02
2023-05-10T07:10:49.339Z,16.07
2023-05-10T07:11:50.798Z,16.09
2023-05-10T07:12:52.246Z,16.09
2023-05-10T07:13:53.736Z,16.13
2023-05-10T07:14:55.205Z,16.17
2023-05-10T07:15:56.695Z,16.23
2023-05-10T07:16:58.165Z,16.27
2023-05-10T07:17:59.733Z,16.28
2023-05-10T07:19:01.251Z,16.34
2023-05-10T07:20:02.786Z,16.34
2023-05-10T07:21:04.356Z,16.22
2023-05-10T07:22:05.808Z,16.36
2023-05-10T07:23:07.231Z,16.38
2023-05-10T07:24:08.645Z,16.41
2023-05-10T07:25:10.197Z,16.43
2023-05-10T07:26:11.631Z,16.45
2023-05-10T07:27:13.059Z,16.45
2023-05-10T07:28:15.031Z,16.50
2023-05-10T07:29:16.452Z,16.48
2023-05-10T07:30:17.913Z,16.52
2023-05-10T07:31:19.381Z,16.54
2023-05-10T07:32:20.898Z,16.53
2023-05-10T07:33:22.380Z,16.57
2023-05-10T07:34:23.794Z,16.59
2023-05-10T07:35:25.202Z,16.59
2023-05-10T07:36:26.804Z,16.61
2023-05-10T07:37:28.426Z,16.69
2023-05-10T07:38:30.067Z,16.70
2023-05-10T07:39:31.713Z,16.72
2023-05-10T07:40:33.384Z,16.76
2023-05-10T07:41:35.867Z,16.81
2023-05-10T07:42:37.625Z,16.80
2023-05-10T07:43:39.262Z,16.80
2023-05-10T07:44:40.905Z,16.80
2023-05-10T07:45:42.568Z,16.82
2023-05-10T07:46:44.250Z,16.79
2023-05-10T07:47:45.828Z,16.85
2023-05-10T07:48:47.266Z,16.90
2023-05-10T07:49:48.727Z,16.92
2023-05-10T07:50:50.156Z,16.93
2023-05-10T07:51:51.561Z,16.93
2023-05-10T07:52:53.180Z,16.92
2023-05-10T07:53:54.807Z,16.92
2023-05-10T07:54:56.416Z,16.95
2023-05-10T07:56:20.079Z,16.99
2023-05-10T07:57:21.716Z,16.98
2023-05-10T07:58:23.333Z,16.99
2023-05-10T07:59:24.957Z,16.98
2023-05-10T08:00:26.550Z,17.00
2023-05-10T08:01:30.511Z,16.99
2023-05-10T08:02:32.238Z,17.00
2023-05-10T08:03:34.033Z,17.06
2023-05-10T08:04:35.727Z,17.11
2023-05-10T08:05:37.414Z,17.13
2023-05-10T08:06:39.051Z,17.18
2023-05-10T08:07:40.683Z,17.17
2023-05-10T08:08:42.503Z,17.23
2023-05-10T08:09:44.154Z,17.22
2023-05-10T08:10:45.788Z,17.26
2023-05-10T08:11:47.494Z,17.28
2023-05-10T08:12:49.132Z,17.31
2023-05-10T08:13:50.943Z,17.29
2023-05-10T08:14:52.619Z,17.30
2023-05-10T08:15:54.085Z,17.35
2023-05-10T08:16:55.568Z,17.31
2023-05-10T08:17:57.084Z,17.28
2023-05-10T08:18:58.573Z,17.29
2023-05-10T08:20:00.013Z,17.26
2023-05-10T08:21:01.469Z,17.23
2023-05-10T08:22:02.929Z,17.26
2023-05-10T08:23:04.328Z,17.28
2023-05-10T08:24:06.025Z,17.27
2023-05-10T08:25:07.648Z,17.29
2023-05-10T08:26:09.120Z,17.32
2023-05-10T08:27:10.580Z,17.35
2023-05-10T08:28:12.132Z,17.39
2023-05-10T08:29:13.616Z,17.39
2023-05-10T08:30:15.261Z,17.38
2023-05-10T08:31:16.776Z,17.43
2023-05-10T08:32:18.528Z,17.47
2023-05-10T08:33:19.949Z,17.48
2023-05-10T08:34:21.537Z,17.49
2023-05-10T08:35:23.079Z,17.50
2023-05-10T08:36:24.530Z,17.49
2023-05-10T08:37:25.977Z,17.48
2023-05-10T08:38:27.396Z,17.47
2023-05-10T08:39:30.667Z,17.48
2023-05-10T08:40:32.612Z,17.49
2023-05-10T08:41:34.373Z,17.48
2023-05-10T08:42:36.039Z,17.45
2023-05-10T08:43:37.724Z,17.49
2023-05-10T08:44:39.188Z,17.49
2023-05-10T08:45:41.157Z,17.52
2023-05-10T08:46:42.659Z,17.50
2023-05-10T08:47:44.114Z,17.50
2023-05-10T08:48:46.098Z,17.47
2023-05-10T08:49:48.295Z,17.53
2023-05-10T08:50:49.719Z,17.54
2023-05-10T08:51:52.901Z,17.53
2023-05-10T08:52:54.551Z,17.62
2023-05-10T08:53:55.992Z,17.68
2023-05-10T08:54:57.825Z,17.73
2023-05-10T08:55:59.453Z,17.75
2023-05-10T08:57:01.163Z,17.79
2023-05-10T08:58:02.980Z,17.81
2023-05-10T08:59:04.609Z,17.86
2023-05-10T09:00:06.816Z,17.89
2023-05-10T09:02:10.543Z,18.01
2023-05-10T09:03:12.054Z,18.05
2023-05-10T09:04:13.626Z,18.08
2023-05-10T09:05:15.265Z,18.14
2023-05-10T09:06:16.841Z,18.15
2023-05-10T09:07:18.293Z,18.14
2023-05-10T09:08:19.762Z,18.17
2023-05-10T09:09:21.435Z,18.20
2023-05-10T09:10:22.870Z,18.29
2023-05-10T09:11:24.273Z,18.36
2023-05-10T09:12:25.752Z,18.46
2023-05-10T09:13:27.212Z,18.48
2023-05-10T09:14:28.664Z,18.49
2023-05-10T09:15:30.082Z,18.48
2023-05-10T09:16:31.539Z,18.51
2023-05-10T09:17:33.043Z,18.51
2023-05-10T09:18:34.562Z,18.51
2023-05-10T09:19:35.969Z,18.55
2023-05-10T09:20:37.391Z,18.59
2023-05-10T09:21:38.828Z,18.62
2023-05-10T09:22:40.262Z,18.63
2023-05-10T09:23:47.364Z,18.67
2023-05-10T09:24:49.566Z,18.65
2023-05-10T09:26:02.457Z,18.62
2023-05-10T09:27:03.899Z,18.57
2023-05-10T09:28:08.288Z,18.66
2023-05-10T09:29:09.739Z,18.71
2023-05-10T09:30:11.296Z,18.80
2023-05-10T09:31:12.728Z,18.82
2023-05-10T09:32:14.167Z,18.83
2023-05-10T09:33:15.582Z,18.86
2023-05-10T09:34:19.749Z,18.89
2023-05-10T09:35:25.977Z,18.94
2023-05-10T09:36:29.407Z,18.99
2023-05-10T09:37:30.828Z,19.04
2023-05-10T09:38:35.027Z,19.10
2023-05-10T09:39:39.268Z,19.15
2023-05-10T09:40:40.670Z,19.19
2023-05-10T09:41:42.080Z,19.26
2023-05-10T09:42:51.934Z,19.30
2023-05-10T09:43:56.310Z,19.36
2023-05-10T09:45:04.120Z,19.39
2023-05-10T09:46:09.473Z,19.39
2023-05-10T09:47:10.874Z,19.40
2023-05-10T09:48:12.335Z,19.37
2023-05-10T09:49:15.246Z,19.37
2023-05-10T09:50:16.669Z,19.32
2023-05-10T09:51:24.570Z,19.28
2023-05-10T09:52:25.976Z,19.26
2023-05-10T09:53:27.398Z,19.25
2023-05-10T09:54:28.886Z,19.23
2023-05-10T09:55:39.635Z,19.26
2023-05-10T09:56:41.187Z,19.31
2023-05-10T09:57:42.651Z,19.34
2023-05-10T09:58:44.068Z,19.37
2023-05-10T09:59:45.544Z,19.41
2023-05-10T10:00:47.016Z,19.43
2023-05-10T10:01:51.609Z,19.42
2023-05-10T10:02:56.632Z,19.41
2023-05-10T10:03:58.308Z,19.32
2023-05-10T10:05:01.807Z,19.26
2023-05-10T10:06:03.395Z,19.17
2023-05-10T10:07:05.052Z,19.07
2023-05-10T10:08:06.934Z,19.04
2023-05-10T10:09:08.669Z,18.99
2023-05-10T10:10:10.398Z,18.99
2023-05-10T10:11:12.001Z,18.96
2023-05-10T10:12:13.390Z,18.96
2023-05-10T10:13:14.920Z,19.00
2023-05-10T10:14:17.198Z,19.02
2023-05-10T10:15:19.040Z,19.09
2023-05-10T10:16:21.221Z,19.05
2023-05-10T10:17:22.887Z,19.12
2023-05-10T10:18:24.578Z,19.12
2023-05-10T10:19:26.229Z,19.11
2023-05-10T10:20:28.775Z,19.09
2023-05-10T10:21:30.338Z,19.15
2023-05-10T10:22:31.780Z,19.21
2023-05-10T10:23:33.232Z,19.28
2023-05-10T10:24:34.655Z,19.32
2023-05-10T10:25:36.063Z,19.36
2023-05-10T10:26:37.495Z,19.42
2023-05-10T10:27:38.901Z,19.47
2023-05-10T10:28:40.288Z,19.52
2023-05-10T10:30:02.490Z,19.59
2023-05-10T10:31:36.152Z,19.64
2023-05-10T10:32:56.157Z,19.74
2023-05-10T10:34:01.314Z,19.76
2023-05-10T10:35:02.958Z,19.78
2023-05-10T10:36:04.710Z,19.79
2023-05-10T10:37:06.619Z,19.83
2023-05-10T10:38:08.899Z,19.81
2023-05-10T10:39:10.538Z,19.81
2023-05-10T10:40:24.312Z,19.84
2023-05-10T10:41:28.810Z,19.77
2023-05-10T10:42:45.717Z,19.76
2023-05-10T10:43:47.162Z,19.76
2023-05-10T10:44:48.570Z,19.76
2023-05-10T10:46:08.786Z,19.77
2023-05-10T10:47:13.286Z,19.77
2023-05-10T10:48:23.884Z,19.79
2023-05-10T10:49:25.346Z,19.67
2023-05-10T10:50:26.770Z,19.63
2023-05-10T10:51:29.558Z,19.60
2023-05-10T10:52:40.205Z,19.62
2023-05-10T10:53:41.716Z,19.65
2023-05-10T10:54:50.893Z,19.68
2023-05-10T10:55:53.008Z,19.72
2023-05-10T10:57:10.973Z,19.78
2023-05-10T10:58:13.422Z,19.87
2023-05-10T10:59:14.838Z,19.87
2023-05-10T11:00:23.086Z,19.94
2023-05-10T11:01:24.618Z,20.02
2023-05-10T11:02:35.725Z,20.06
2023-05-10T11:03:37.200Z,20.10
2023-05-10T11:04:44.420Z,20.13
2023-05-10T11:05:46.322Z,20.15
2023-05-10T11:06:47.760Z,20.21
2023-05-10T11:07:58.839Z,20.28
2023-05-10T11:09:00.506Z,20.37
2023-05-10T11:10:05.359Z,20.43
2023-05-10T11:11:07.171Z,20.45
2023-05-10T11:12:11.360Z,20.45
2023-05-10T11:13:12.780Z,20.50
2023-05-10T11:14:14.216Z,20.54
2023-05-10T11:15:15.906Z,20.57
2023-05-10T11:16:17.625Z,20.57
2023-05-10T11:17:28.479Z,20.61
2023-05-10T11:18:30.863Z,20.58
2023-05-10T11:19:32.278Z,20.60
2023-05-10T11:20:42.825Z,20.56
2023-05-10T11:21:47.113Z,20.56
2023-05-10T11:22:52.009Z,20.54
2023-05-10T11:23:54.047Z,20.43
2023-05-10T11:24:58.290Z,20.49
2023-05-10T11:26:00.316Z,20.48
2023-05-10T11:27:01.736Z,20.50
2023-05-10T11:28:03.332Z,20.50
2023-05-10T11:29:04.758Z,20.53
2023-05-10T11:30:06.902Z,20.58
2023-05-10T11:31:08.335Z,20.66
2023-05-10T11:32:09.762Z,20.67
2023-05-10T11:33:12.168Z,20.69
2023-05-10T11:34:23.521Z,20.73
2023-05-10T11:35:25.014Z,20.73
2023-05-10T11:36:29.645Z,20.75
2023-05-10T11:37:31.083Z,20.77
2023-05-10T11:38:33.648Z,20.81
2023-05-10T11:39:35.048Z,20.82
2023-05-10T11:40:36.637Z,20.85
2023-05-10T11:47:51.002Z,22.69
2023-05-10T11:48:53.882Z,22.89
2023-05-10T11:49:55.535Z,23.11
2023-05-10T11:50:57.161Z,23.30
2023-05-10T11:52:06.099Z,23.48
2023-05-10T11:53:07.550Z,23.87
2023-05-10T11:54:09.516Z,24.45
2023-05-10T11:55:11.258Z,24.93
2023-05-10T11:56:12.915Z,25.33
2023-05-10T11:57:14.389Z,25.45
2023-05-10T11:58:15.866Z,25.29
2023-05-10T11:59:17.316Z,25.15
2023-05-10T12:00:19.001Z,25.03
2023-05-10T12:02:26.010Z,24.78
2023-05-10T12:03:28.574Z,24.67
2023-05-10T12:04:30.500Z,24.70
2023-05-10T12:06:58.390Z,22.60
2023-05-10T12:08:15.357Z,21.77
2023-05-10T12:09:17.645Z,20.89
2023-05-10T12:10:26.015Z,20.35
2023-05-10T12:11:28.705Z,20.05
2023-05-10T12:12:38.365Z,19.71
2023-05-10T12:13:40.857Z,19.48
2023-05-10T12:14:42.485Z,19.33
2023-05-10T12:15:44.214Z,19.36
2023-05-10T12:16:48.952Z,19.60
2023-05-10T12:17:50.882Z,19.78
2023-05-10T12:18:52.850Z,19.81
2023-05-10T12:19:54.331Z,19.90
2023-05-10T12:20:58.183Z,19.97
2023-05-10T12:21:59.793Z,19.92
2023-05-10T12:23:01.192Z,19.75
2023-05-10T12:24:03.141Z,19.61
2023-05-10T12:25:04.706Z,19.64
2023-05-10T12:26:06.249Z,19.74
2023-05-10T12:28:27.450Z,20.20
2023-05-10T12:29:31.249Z,20.29
2023-05-10T12:30:32.919Z,20.46
2023-05-10T12:31:34.309Z,20.56
2023-05-10T12:32:39.205Z,20.60
2023-05-10T12:33:44.010Z,20.62
2023-05-10T12:34:45.376Z,20.52
2023-05-10T12:35:47.712Z,20.48
2023-05-10T12:36:51.064Z,20.48
2023-05-10T12:37:52.428Z,20.23
2023-05-10T12:38:57.486Z,20.16
2023-05-10T12:39:58.852Z,19.78
2023-05-10T12:41:01.169Z,19.77
2023-05-10T12:42:02.827Z,20.07
2023-05-10T12:43:04.416Z,20.24
2023-05-10T12:44:06.080Z,20.39
2023-05-10T12:45:07.688Z,20.28
2023-05-10T12:46:09.844Z,20.42
2023-05-10T12:47:11.304Z,19.80
2023-05-10T12:48:12.728Z,20.43
2023-05-10T12:49:14.147Z,20.46
2023-05-10T12:50:15.665Z,20.30
2023-05-10T12:51:17.262Z,20.31
2023-05-10T12:52:18.649Z,20.31
2023-05-10T12:53:20.011Z,20.33
2023-05-10T12:54:21.387Z,20.49
2023-05-10T12:55:23.009Z,20.51
2023-05-10T12:56:24.401Z,20.27
2023-05-10T12:57:25.787Z,20.18
2023-05-10T12:58:35.614Z,20.37
2023-05-10T12:59:38.365Z,20.40
2023-05-10T13:00:39.854Z,20.32
2023-05-10T13:01:41.322Z,20.21
2023-05-10T13:02:43.009Z,20.18
2023-05-10T13:03:44.612Z,19.96
2023-05-10T13:04:46.501Z,19.63
2023-05-10T13:05:48.582Z,19.84
2023-05-10T13:06:50.211Z,19.45
2023-05-10T13:07:51.775Z,19.35
2023-05-10T13:08:53.383Z,19.49
2023-05-10T13:09:54.763Z,19.44
2023-05-10T13:10:56.131Z,19.51
2023-05-10T13:11:57.586Z,19.64
2023-05-10T13:12:59.123Z,19.80
2023-05-10T13:14:00.534Z,20.06
2023-05-10T13:15:02.017Z,20.18
2023-05-10T13:16:03.518Z,19.98
2023-05-10T13:17:04.987Z,19.85
2023-05-10T13:18:06.486Z,19.94
2023-05-10T13:19:07.983Z,20.04
2023-05-10T13:20:09.720Z,20.04
2023-05-10T13:21:11.142Z,20.00
2023-05-10T13:22:12.525Z,20.02
2023-05-10T13:23:14.142Z,20.18
2023-05-10T13:24:15.488Z,20.23
2023-05-10T13:25:16.902Z,20.18
2023-05-10T13:26:18.295Z,20.28
2023-05-10T13:27:19.660Z,20.07
2023-05-10T13:28:21.037Z,20.28
2023-05-10T13:29:22.395Z,20.55
2023-05-10T13:30:23.750Z,20.58
2023-05-10T13:31:25.239Z,20.80
2023-05-10T13:32:26.916Z,20.77
2023-05-10T13:33:28.325Z,20.89
2023-05-10T13:34:29.736Z,20.67
2023-05-10T13:35:31.116Z,20.83
2023-05-10T13:36:32.516Z,20.88
2023-05-10T13:37:33.884Z,20.94
2023-05-10T13:38:35.386Z,20.81
2023-05-10T13:39:37.799Z,20.93
2023-05-10T13:40:39.321Z,20.87
2023-05-10T13:41:40.695Z,20.99
2023-05-10T13:42:43.043Z,21.04
2023-05-10T13:43:44.420Z,21.01
2023-05-10T13:44:45.801Z,21.10
2023-05-10T13:45:47.178Z,21.31
2023-05-10T13:46:48.592Z,21.41
2023-05-10T13:47:50.099Z,21.47
2023-05-10T13:48:51.532Z,21.66
2023-05-10T13:49:52.916Z,21.73
2023-05-10T13:50:54.308Z,21.79
2023-05-10T13:51:55.915Z,21.75
2023-05-10T13:52:57.331Z,21.79
2023-05-10T13:53:59.125Z,21.85
2023-05-10T13:55:00.534Z,21.93
2023-05-10T13:56:01.929Z,21.96
2023-05-10T13:57:03.339Z,21.74
2023-05-10T13:58:04.967Z,21.85
2023-05-10T13:59:06.398Z,22.03
2023-05-10T14:00:08.068Z,22.14
2023-05-10T14:01:09.436Z,22.03
2023-05-10T14:02:10.936Z,21.88
2023-05-10T14:03:12.721Z,21.80
2023-05-10T14:04:14.232Z,21.77
2023-05-10T14:05:15.713Z,21.51
2023-05-10T14:06:17.735Z,21.41
2023-05-10T14:07:19.136Z,21.31
2023-05-10T14:08:20.507Z,21.09
2023-05-10T14:09:21.865Z,20.78
2023-05-10T14:10:23.256Z,20.76
2023-05-10T14:11:24.848Z,20.92
2023-05-10T14:12:26.324Z,21.16
2023-05-10T14:13:27.720Z,21.28
2023-05-10T14:14:29.104Z,21.14
2023-05-10T14:15:30.485Z,21.07
2023-05-10T14:16:31.897Z,21.06
2023-05-10T14:17:33.314Z,21.08
2023-05-10T14:18:34.767Z,21.17
2023-05-10T14:19:36.158Z,21.01
2023-05-10T14:20:37.559Z,20.92
2023-05-10T14:21:38.938Z,20.70
2023-05-10T14:22:40.316Z,20.78
2023-05-10T14:23:41.695Z,20.91
2023-05-10T14:24:43.096Z,21.08
2023-05-10T14:25:44.496Z,21.10
2023-05-10T14:26:45.924Z,20.98
2023-05-10T14:27:47.333Z,21.18
2023-05-10T14:28:48.753Z,21.32
2023-05-10T14:29:50.182Z,21.54
2023-05-10T14:30:51.562Z,21.58
2023-05-10T14:31:53.033Z,21.57
2023-05-10T14:32:54.430Z,21.46
2023-05-10T14:33:55.820Z,21.68
2023-05-10T14:34:57.213Z,21.74
2023-05-10T14:35:58.587Z,21.99
2023-05-10T14:36:59.983Z,22.21
2023-05-10T14:38:01.366Z,22.59
2023-05-10T14:39:02.747Z,22.93
2023-05-10T14:40:04.291Z,23.37
2023-05-10T14:41:05.662Z,23.68
2023-05-10T14:42:07.032Z,23.64
2023-05-10T14:43:08.460Z,23.48
2023-05-10T14:44:12.219Z,23.23
2023-05-10T14:45:13.603Z,23.24
2023-05-10T14:46:15.035Z,23.33
2023-05-10T14:47:16.475Z,22.74
2023-05-10T14:48:17.923Z,22.88
2023-05-10T14:49:19.288Z,23.10
2023-05-10T14:50:35.249Z,23.34
2023-05-10T14:51:40.455Z,23.40
2023-05-10T14:52:41.858Z,22.90
2023-05-10T14:53:43.374Z,23.14
2023-05-10T14:54:44.968Z,23.28
2023-05-10T14:55:46.554Z,23.55
2023-05-10T14:56:48.162Z,23.72
2023-05-10T14:57:49.758Z,23.35
2023-05-10T14:58:51.397Z,24.18
2023-05-10T14:59:53.463Z,24.35
2023-05-10T15:00:55.382Z,24.18
2023-05-10T15:01:57.256Z,23.96
2023-05-10T15:02:59.386Z,23.99
2023-05-10T15:04:01.520Z,23.65
2023-05-10T15:05:03.741Z,23.68
2023-05-10T15:06:05.602Z,23.42
2023-05-10T15:07:07.240Z,23.21
2023-05-10T15:08:08.813Z,23.03
2023-05-10T15:09:10.490Z,22.51
2023-05-10T15:10:12.207Z,22.05
2023-05-10T15:11:13.804Z,22.20
2023-05-10T15:12:15.414Z,22.28
2023-05-10T15:13:17.024Z,22.19
2023-05-10T15:14:18.619Z,22.30
2023-05-10T15:15:20.026Z,22.45
2023-05-10T15:16:21.524Z,22.64
2023-05-10T15:17:23.026Z,22.59
2023-05-10T15:18:27.550Z,22.59
2023-05-10T15:19:28.969Z,22.68
2023-05-10T15:20:30.344Z,23.05
2023-05-10T15:21:31.753Z,23.23
2023-05-10T15:22:34.268Z,23.26
2023-05-10T15:23:35.944Z,23.18
2023-05-10T15:24:37.353Z,23.25
2023-05-10T15:25:38.708Z,23.44
2023-05-10T15:26:40.123Z,23.68
2023-05-10T15:27:41.682Z,23.67
2023-05-10T15:28:43.060Z,23.53
2023-05-10T15:29:44.430Z,22.88
2023-05-10T15:30:45.852Z,22.72
2023-05-10T15:31:50.390Z,22.41
2023-05-10T15:32:52.193Z,22.02
2023-05-10T15:33:57.497Z,21.87
2023-05-10T15:34:59.039Z,21.95
2023-05-10T15:36:00.400Z,22.21
2023-05-10T15:37:01.771Z,22.42
2023-05-10T15:38:03.135Z,22.14
2023-05-10T15:39:04.496Z,22.31
2023-05-10T15:40:06.261Z,22.34
2023-05-10T15:41:07.702Z,22.63
2023-05-10T15:42:09.153Z,22.69
2023-05-10T15:43:10.542Z,22.81
2023-05-10T15:44:11.940Z,22.63
2023-05-10T15:45:13.536Z,22.39
2023-05-10T15:46:15.009Z,21.79
2023-05-10T15:47:18.722Z,21.14
2023-05-10T15:48:20.125Z,20.80
2023-05-10T15:49:21.519Z,20.61
2023-05-10T15:50:23.066Z,20.61
2023-05-10T15:51:24.486Z,20.75
2023-05-10T15:52:25.924Z,21.06
2023-05-10T15:53:27.342Z,21.25
2023-05-10T15:54:28.753Z,21.39
2023-05-10T15:55:30.212Z,21.08
2023-05-10T15:56:31.633Z,21.00
2023-05-10T15:57:33.963Z,20.83
2023-05-10T15:58:36.426Z,20.97
2023-05-10T15:59:37.843Z,21.25
2023-05-10T16:00:39.284Z,21.34
2023-05-10T16:01:40.733Z,21.85
2023-05-10T16:02:42.269Z,22.09
2023-05-10T16:03:43.946Z,22.30
2023-05-10T16:04:45.506Z,22.36
2023-05-10T16:05:46.921Z,22.64
2023-05-10T16:06:48.336Z,22.60
2023-05-10T16:07:49.798Z,22.71
2023-05-10T16:08:51.983Z,22.60
2023-05-10T16:09:54.863Z,22.71
2023-05-10T16:10:56.639Z,22.10
2023-05-10T16:11:58.042Z,22.05
2023-05-10T16:12:59.508Z,22.50
2023-05-10T16:14:00.927Z,22.95
2023-05-10T16:15:02.346Z,22.76
2023-05-10T16:16:04.105Z,22.82
2023-05-10T16:17:05.692Z,23.26
2023-05-10T16:18:07.329Z,23.72
2023-05-10T16:19:08.836Z,23.89
2023-05-10T16:20:10.464Z,24.23
2023-05-10T16:21:11.932Z,24.28
2023-05-10T16:22:13.479Z,24.04
2023-05-10T16:23:14.929Z,23.60
2023-05-10T16:24:16.319Z,23.68
2023-05-10T16:25:18.120Z,24.10
2023-05-10T16:26:19.884Z,24.41
2023-05-10T16:27:21.276Z,24.36
2023-05-10T16:28:22.716Z,24.08
2023-05-10T16:29:24.217Z,24.09
2023-05-10T16:30:25.639Z,23.92
2023-05-10T16:31:27.179Z,24.35
2023-05-10T16:32:28.686Z,24.78
2023-05-10T16:33:30.120Z,25.01
2023-05-10T16:34:31.531Z,24.51
2023-05-10T16:35:33.150Z,24.11
2023-05-10T16:36:34.801Z,24.21
2023-05-10T16:37:36.202Z,24.11
2023-05-10T16:38:37.657Z,24.29
2023-05-10T16:39:39.321Z,24.57
2023-05-10T16:40:40.750Z,24.86
2023-05-10T16:41:42.175Z,24.50
2023-05-10T16:42:43.606Z,24.53
2023-05-10T16:43:45.026Z,24.71
2023-05-10T16:44:46.443Z,24.52
2023-05-10T16:45:48.322Z,24.58
2023-05-10T16:46:49.784Z,24.46
2023-05-10T16:47:51.809Z,24.18
2023-05-10T16:48:53.399Z,24.16
2023-05-10T16:49:55.065Z,23.80
2023-05-10T16:50:57.146Z,23.86
2023-05-10T16:51:58.560Z,23.87
2023-05-10T16:53:00.202Z,23.34
2023-05-10T16:54:01.850Z,22.83
2023-05-10T16:55:03.627Z,22.68
2023-05-10T16:56:05.360Z,22.37
2023-05-10T16:57:06.779Z,21.78
2023-05-10T16:58:08.271Z,21.88
2023-05-10T16:59:10.035Z,22.16
2023-05-10T17:00:12.293Z,22.42
2023-05-10T17:01:13.944Z,22.49
2023-05-10T17:02:15.727Z,22.23
2023-05-10T17:03:17.443Z,21.62
2023-05-10T17:04:19.156Z,21.66
2023-05-10T17:05:21.530Z,21.84
2023-05-10T17:06:23.156Z,21.95
2023-05-10T17:07:26.275Z,21.92
2023-05-10T17:08:28.014Z,21.81